sensor_id;sensor_type;location;lat;lon;timestamp;P1;durP1;ratioP1;P2;durP2;ratioP2
40707;SDS011;26392;42.696;23.350;2022-10-16T00:00:35;17.83;;;9.70;;
40707;SDS011;26392;42.696;23.350;2022-10-16T00:03:02;17.80;;;8.70;;
40707;SDS011;26392;42.696;23.350;2022-10-16T00:05:29;18.02;;;9.35;;
40707;SDS011;26392;42.696;23.350;2022-10-16T00:07:55;21.60;;;8.80;;
40707;SDS011;26392;42.696;23.350;2022-10-16T00:10:20;16.75;;;8.95;;
40707;SDS011;26392;42.696;23.350;2022-10-16T00:12:46;19.27;;;8.73;;
40707;SDS011;26392;42.696;23.350;2022-10-16T00:15:11;16.05;;;8.80;;
40707;SDS011;26392;42.696;23.350;2022-10-16T00:17:37;15.85;;;9.38;;
40707;SDS011;26392;42.696;23.350;2022-10-16T00:20:03;15.63;;;9.30;;
40707;SDS011;26392;42.696;23.350;2022-10-16T00:22:29;15.13;;;8.27;;
40707;SDS011;26392;42.696;23.350;2022-10-16T00:24:54;19.15;;;9.70;;
40707;SDS011;26392;42.696;23.350;2022-10-16T00:27:19;17.27;;;8.73;;
40707;SDS011;26392;42.696;23.350;2022-10-16T00:29:45;19.23;;;9.55;;
40707;SDS011;26392;42.696;23.350;2022-10-16T00:32:14;19.48;;;9.93;;
40707;SDS011;26392;42.696;23.350;2022-10-16T00:34:39;16.83;;;8.68;;
40707;SDS011;26392;42.696;23.350;2022-10-16T00:37:04;19.35;;;9.57;;
40707;SDS011;26392;42.696;23.350;2022-10-16T00:39:30;20.25;;;8.57;;
40707;SDS011;26392;42.696;23.350;2022-10-16T00:41:56;19.50;;;9.27;;
40707;SDS011;26392;42.696;23.350;2022-10-16T00:47:11;21.20;;;10.32;;
40707;SDS011;26392;42.696;23.350;2022-10-16T00:49:41;19.08;;;10.15;;
40707;SDS011;26392;42.696;23.350;2022-10-16T00:52:06;19.02;;;10.18;;
40707;SDS011;26392;42.696;23.350;2022-10-16T00:54:32;20.25;;;10.35;;
40707;SDS011;26392;42.696;23.350;2022-10-16T00:57:00;20.02;;;9.93;;
40707;SDS011;26392;42.696;23.350;2022-10-16T00:59:37;19.80;;;9.50;;
40707;SDS011;26392;42.696;23.350;2022-10-16T01:02:05;21.58;;;10.20;;
40707;SDS011;26392;42.696;23.350;2022-10-16T01:04:34;20.25;;;9.10;;
40707;SDS011;26392;42.696;23.350;2022-10-16T01:09:37;16.52;;;8.45;;
40707;SDS011;26392;42.696;23.350;2022-10-16T01:15:01;26.52;;;10.05;;
40707;SDS011;26392;42.696;23.350;2022-10-16T01:25:16;16.58;;;8.60;;
40707;SDS011;26392;42.696;23.350;2022-10-16T01:27:51;17.50;;;9.50;;
40707;SDS011;26392;42.696;23.350;2022-10-16T01:30:18;25.45;;;10.32;;
40707;SDS011;26392;42.696;23.350;2022-10-16T01:35:33;20.77;;;10.05;;
40707;SDS011;26392;42.696;23.350;2022-10-16T01:38:06;20.27;;;9.95;;
40707;SDS011;26392;42.696;23.350;2022-10-16T01:40:37;18.73;;;10.00;;
40707;SDS011;26392;42.696;23.350;2022-10-16T01:43:10;23.10;;;9.65;;
40707;SDS011;26392;42.696;23.350;2022-10-16T01:45:39;19.23;;;9.23;;
40707;SDS011;26392;42.696;23.350;2022-10-16T01:48:06;16.90;;;9.13;;
40707;SDS011;26392;42.696;23.350;2022-10-16T01:50:35;25.58;;;10.27;;
40707;SDS011;26392;42.696;23.350;2022-10-16T01:53:05;17.65;;;9.30;;
40707;SDS011;26392;42.696;23.350;2022-10-16T01:55:36;23.73;;;9.45;;
40707;SDS011;26392;42.696;23.350;2022-10-16T01:58:08;19.73;;;10.52;;
40707;SDS011;26392;42.696;23.350;2022-10-16T02:00:37;19.08;;;9.18;;
40707;SDS011;26392;42.696;23.350;2022-10-16T02:03:04;20.73;;;10.88;;
40707;SDS011;26392;42.696;23.350;2022-10-16T02:06:05;23.73;;;10.23;;
40707;SDS011;26392;42.696;23.350;2022-10-16T02:08:24;25.10;;;11.63;;
40707;SDS011;26392;42.696;23.350;2022-10-16T02:10:54;18.38;;;10.02;;
40707;SDS011;26392;42.696;23.350;2022-10-16T02:13:26;18.90;;;10.23;;
40707;SDS011;26392;42.696;23.350;2022-10-16T02:15:57;28.60;;;11.20;;
40707;SDS011;26392;42.696;23.350;2022-10-16T02:18:23;21.55;;;10.32;;
40707;SDS011;26392;42.696;23.350;2022-10-16T02:20:58;24.52;;;10.95;;
40707;SDS011;26392;42.696;23.350;2022-10-16T02:23:29;16.95;;;10.02;;
40707;SDS011;26392;42.696;23.350;2022-10-16T02:26:09;16.60;;;9.13;;
40707;SDS011;26392;42.696;23.350;2022-10-16T02:28:40;21.08;;;10.77;;
40707;SDS011;26392;42.696;23.350;2022-10-16T02:31:11;17.33;;;9.43;;
40707;SDS011;26392;42.696;23.350;2022-10-16T02:33:41;22.35;;;9.55;;
40707;SDS011;26392;42.696;23.350;2022-10-16T02:36:09;17.92;;;10.05;;
40707;SDS011;26392;42.696;23.350;2022-10-16T02:38:35;21.38;;;10.40;;
40707;SDS011;26392;42.696;23.350;2022-10-16T02:41:01;17.23;;;8.52;;
40707;SDS011;26392;42.696;23.350;2022-10-16T02:43:28;20.88;;;9.05;;
40707;SDS011;26392;42.696;23.350;2022-10-16T02:45:53;18.52;;;8.55;;
40707;SDS011;26392;42.696;23.350;2022-10-16T02:48:19;15.10;;;8.68;;
40707;SDS011;26392;42.696;23.350;2022-10-16T02:50:44;18.30;;;8.30;;
40707;SDS011;26392;42.696;23.350;2022-10-16T02:53:10;19.33;;;8.52;;
40707;SDS011;26392;42.696;23.350;2022-10-16T02:55:35;16.15;;;8.07;;
40707;SDS011;26392;42.696;23.350;2022-10-16T02:58:00;17.65;;;8.43;;
40707;SDS011;26392;42.696;23.350;2022-10-16T03:00:26;16.15;;;8.20;;
40707;SDS011;26392;42.696;23.350;2022-10-16T03:02:51;20.27;;;8.43;;
40707;SDS011;26392;42.696;23.350;2022-10-16T03:05:16;20.05;;;8.10;;
40707;SDS011;26392;42.696;23.350;2022-10-16T03:07:42;18.20;;;8.88;;
40707;SDS011;26392;42.696;23.350;2022-10-16T03:10:08;14.38;;;7.70;;
40707;SDS011;26392;42.696;23.350;2022-10-16T03:12:33;17.20;;;7.65;;
40707;SDS011;26392;42.696;23.350;2022-10-16T03:14:59;15.88;;;8.18;;
40707;SDS011;26392;42.696;23.350;2022-10-16T03:17:24;19.17;;;8.73;;
40707;SDS011;26392;42.696;23.350;2022-10-16T03:19:50;16.90;;;9.40;;
40707;SDS011;26392;42.696;23.350;2022-10-16T03:22:16;21.25;;;8.95;;
40707;SDS011;26392;42.696;23.350;2022-10-16T03:24:41;17.33;;;8.20;;
40707;SDS011;26392;42.696;23.350;2022-10-16T03:27:07;19.02;;;9.90;;
40707;SDS011;26392;42.696;23.350;2022-10-16T03:29:32;16.13;;;9.13;;
40707;SDS011;26392;42.696;23.350;2022-10-16T03:31:58;26.63;;;9.90;;
40707;SDS011;26392;42.696;23.350;2022-10-16T03:34:24;19.02;;;9.52;;
40707;SDS011;26392;42.696;23.350;2022-10-16T03:36:50;17.20;;;8.88;;
40707;SDS011;26392;42.696;23.350;2022-10-16T03:39:16;23.88;;;8.55;;
40707;SDS011;26392;42.696;23.350;2022-10-16T03:41:41;21.00;;;9.35;;
40707;SDS011;26392;42.696;23.350;2022-10-16T03:44:07;19.10;;;9.30;;
40707;SDS011;26392;42.696;23.350;2022-10-16T03:46:32;20.33;;;9.65;;
40707;SDS011;26392;42.696;23.350;2022-10-16T03:48:58;16.92;;;9.63;;
40707;SDS011;26392;42.696;23.350;2022-10-16T03:51:23;14.93;;;8.35;;
40707;SDS011;26392;42.696;23.350;2022-10-16T03:53:48;18.92;;;9.30;;
40707;SDS011;26392;42.696;23.350;2022-10-16T03:56:14;18.50;;;8.68;;
40707;SDS011;26392;42.696;23.350;2022-10-16T03:58:39;21.02;;;9.68;;
40707;SDS011;26392;42.696;23.350;2022-10-16T04:01:05;18.27;;;7.95;;
40707;SDS011;26392;42.696;23.350;2022-10-16T04:03:30;21.73;;;9.35;;
40707;SDS011;26392;42.696;23.350;2022-10-16T04:05:56;18.38;;;8.50;;
40707;SDS011;26392;42.696;23.350;2022-10-16T04:08:21;20.00;;;10.00;;
40707;SDS011;26392;42.696;23.350;2022-10-16T04:10:47;16.40;;;8.65;;
40707;SDS011;26392;42.696;23.350;2022-10-16T04:13:12;17.55;;;8.52;;
40707;SDS011;26392;42.696;23.350;2022-10-16T04:15:38;15.13;;;8.68;;
40707;SDS011;26392;42.696;23.350;2022-10-16T04:18:04;18.30;;;8.55;;
40707;SDS011;26392;42.696;23.350;2022-10-16T04:20:30;16.00;;;8.60;;
40707;SDS011;26392;42.696;23.350;2022-10-16T04:22:55;19.77;;;8.80;;
40707;SDS011;26392;42.696;23.350;2022-10-16T04:25:21;19.08;;;8.90;;
40707;SDS011;26392;42.696;23.350;2022-10-16T04:27:46;18.00;;;9.25;;
40707;SDS011;26392;42.696;23.350;2022-10-16T04:30:12;18.13;;;9.48;;
40707;SDS011;26392;42.696;23.350;2022-10-16T04:32:38;21.42;;;9.27;;
40707;SDS011;26392;42.696;23.350;2022-10-16T04:35:04;23.70;;;10.00;;
40707;SDS011;26392;42.696;23.350;2022-10-16T04:37:29;18.15;;;9.70;;
40707;SDS011;26392;42.696;23.350;2022-10-16T04:39:55;22.30;;;9.13;;
40707;SDS011;26392;42.696;23.350;2022-10-16T04:42:21;18.25;;;8.95;;
40707;SDS011;26392;42.696;23.350;2022-10-16T04:44:46;18.20;;;9.18;;
40707;SDS011;26392;42.696;23.350;2022-10-16T04:47:12;20.90;;;9.50;;
40707;SDS011;26392;42.696;23.350;2022-10-16T04:49:38;21.27;;;9.63;;
40707;SDS011;26392;42.696;23.350;2022-10-16T04:52:04;15.80;;;8.70;;
40707;SDS011;26392;42.696;23.350;2022-10-16T04:54:29;20.90;;;9.40;;
40707;SDS011;26392;42.696;23.350;2022-10-16T04:56:55;21.77;;;10.77;;
40707;SDS011;26392;42.696;23.350;2022-10-16T04:59:20;18.58;;;9.85;;
40707;SDS011;26392;42.696;23.350;2022-10-16T05:01:47;20.98;;;10.60;;
40707;SDS011;26392;42.696;23.350;2022-10-16T05:04:12;29.17;;;10.13;;
40707;SDS011;26392;42.696;23.350;2022-10-16T05:06:39;19.58;;;10.40;;
40707;SDS011;26392;42.696;23.350;2022-10-16T05:09:05;20.35;;;10.10;;
40707;SDS011;26392;42.696;23.350;2022-10-16T05:11:31;24.00;;;9.65;;
40707;SDS011;26392;42.696;23.350;2022-10-16T05:13:56;28.13;;;10.23;;
40707;SDS011;26392;42.696;23.350;2022-10-16T05:16:22;21.45;;;9.68;;
40707;SDS011;26392;42.696;23.350;2022-10-16T05:18:47;20.77;;;8.77;;
40707;SDS011;26392;42.696;23.350;2022-10-16T05:21:12;20.70;;;9.00;;
40707;SDS011;26392;42.696;23.350;2022-10-16T05:23:38;18.65;;;9.75;;
40707;SDS011;26392;42.696;23.350;2022-10-16T05:26:03;24.58;;;10.23;;
40707;SDS011;26392;42.696;23.350;2022-10-16T05:28:29;17.83;;;9.10;;
40707;SDS011;26392;42.696;23.350;2022-10-16T05:30:55;19.40;;;10.60;;
40707;SDS011;26392;42.696;23.350;2022-10-16T05:33:21;19.73;;;9.73;;
40707;SDS011;26392;42.696;23.350;2022-10-16T05:35:48;18.70;;;9.45;;
40707;SDS011;26392;42.696;23.350;2022-10-16T05:38:15;18.40;;;9.55;;
40707;SDS011;26392;42.696;23.350;2022-10-16T05:40:40;20.02;;;9.13;;
40707;SDS011;26392;42.696;23.350;2022-10-16T05:43:06;16.42;;;9.75;;
40707;SDS011;26392;42.696;23.350;2022-10-16T05:45:31;18.48;;;9.10;;
40707;SDS011;26392;42.696;23.350;2022-10-16T05:47:57;19.20;;;10.65;;
40707;SDS011;26392;42.696;23.350;2022-10-16T05:50:22;24.27;;;10.57;;
40707;SDS011;26392;42.696;23.350;2022-10-16T05:52:47;24.15;;;10.88;;
40707;SDS011;26392;42.696;23.350;2022-10-16T05:55:13;28.10;;;11.52;;
40707;SDS011;26392;42.696;23.350;2022-10-16T05:57:38;23.38;;;11.13;;
40707;SDS011;26392;42.696;23.350;2022-10-16T06:00:04;26.02;;;11.68;;
40707;SDS011;26392;42.696;23.350;2022-10-16T06:02:30;22.02;;;11.10;;
40707;SDS011;26392;42.696;23.350;2022-10-16T06:04:56;22.63;;;10.48;;
40707;SDS011;26392;42.696;23.350;2022-10-16T06:07:21;17.75;;;10.48;;
40707;SDS011;26392;42.696;23.350;2022-10-16T06:09:51;26.23;;;10.55;;
40707;SDS011;26392;42.696;23.350;2022-10-16T06:12:17;21.77;;;10.35;;
40707;SDS011;26392;42.696;23.350;2022-10-16T06:14:44;25.02;;;10.93;;
40707;SDS011;26392;42.696;23.350;2022-10-16T06:17:10;19.33;;;10.63;;
40707;SDS011;26392;42.696;23.350;2022-10-16T06:19:35;23.08;;;11.23;;
40707;SDS011;26392;42.696;23.350;2022-10-16T06:22:00;24.90;;;12.15;;
40707;SDS011;26392;42.696;23.350;2022-10-16T06:24:27;23.42;;;11.18;;
40707;SDS011;26392;42.696;23.350;2022-10-16T06:26:53;27.30;;;11.90;;
40707;SDS011;26392;42.696;23.350;2022-10-16T06:29:18;26.00;;;11.95;;
40707;SDS011;26392;42.696;23.350;2022-10-16T06:31:43;28.00;;;12.82;;
40707;SDS011;26392;42.696;23.350;2022-10-16T06:34:09;32.53;;;13.63;;
40707;SDS011;26392;42.696;23.350;2022-10-16T06:36:36;28.27;;;13.68;;
40707;SDS011;26392;42.696;23.350;2022-10-16T06:39:02;26.77;;;12.50;;
40707;SDS011;26392;42.696;23.350;2022-10-16T06:41:28;24.30;;;12.13;;
40707;SDS011;26392;42.696;23.350;2022-10-16T06:43:53;20.65;;;11.68;;
40707;SDS011;26392;42.696;23.350;2022-10-16T06:46:20;25.65;;;11.68;;
40707;SDS011;26392;42.696;23.350;2022-10-16T06:48:47;26.38;;;11.70;;
40707;SDS011;26392;42.696;23.350;2022-10-16T06:51:17;17.13;;;10.38;;
40707;SDS011;26392;42.696;23.350;2022-10-16T06:53:47;19.48;;;10.38;;
40707;SDS011;26392;42.696;23.350;2022-10-16T06:58:44;19.02;;;10.25;;
40707;SDS011;26392;42.696;23.350;2022-10-16T07:01:11;17.98;;;9.98;;
40707;SDS011;26392;42.696;23.350;2022-10-16T07:03:38;17.50;;;9.65;;
40707;SDS011;26392;42.696;23.350;2022-10-16T07:06:05;21.90;;;10.38;;
40707;SDS011;26392;42.696;23.350;2022-10-16T07:08:35;18.65;;;9.85;;
40707;SDS011;26392;42.696;23.350;2022-10-16T07:11:03;16.88;;;9.48;;
40707;SDS011;26392;42.696;23.350;2022-10-16T07:13:32;26.05;;;10.38;;
40707;SDS011;26392;42.696;23.350;2022-10-16T07:16:03;22.58;;;10.52;;
40707;SDS011;26392;42.696;23.350;2022-10-16T07:18:33;17.40;;;9.38;;
40707;SDS011;26392;42.696;23.350;2022-10-16T07:21:07;16.83;;;9.45;;
40707;SDS011;26392;42.696;23.350;2022-10-16T07:23:34;20.57;;;8.90;;
40707;SDS011;26392;42.696;23.350;2022-10-16T07:25:59;22.52;;;9.98;;
40707;SDS011;26392;42.696;23.350;2022-10-16T07:28:25;16.27;;;9.43;;
40707;SDS011;26392;42.696;23.350;2022-10-16T07:30:50;18.90;;;11.52;;
40707;SDS011;26392;42.696;23.350;2022-10-16T07:33:16;25.73;;;14.43;;
40707;SDS011;26392;42.696;23.350;2022-10-16T07:35:51;21.88;;;12.00;;
40707;SDS011;26392;42.696;23.350;2022-10-16T07:38:18;16.55;;;9.60;;
40707;SDS011;26392;42.696;23.350;2022-10-16T07:40:44;20.48;;;10.32;;
40707;SDS011;26392;42.696;23.350;2022-10-16T07:43:10;16.20;;;8.88;;
40707;SDS011;26392;42.696;23.350;2022-10-16T07:45:35;17.08;;;9.43;;
40707;SDS011;26392;42.696;23.350;2022-10-16T07:48:01;17.05;;;8.95;;
40707;SDS011;26392;42.696;23.350;2022-10-16T07:50:26;15.32;;;8.93;;
40707;SDS011;26392;42.696;23.350;2022-10-16T07:52:51;15.77;;;8.65;;
40707;SDS011;26392;42.696;23.350;2022-10-16T07:55:17;16.50;;;8.88;;
40707;SDS011;26392;42.696;23.350;2022-10-16T07:57:42;11.70;;;7.55;;
40707;SDS011;26392;42.696;23.350;2022-10-16T08:00:08;16.38;;;7.72;;
40707;SDS011;26392;42.696;23.350;2022-10-16T08:02:38;20.52;;;7.65;;
40707;SDS011;26392;42.696;23.350;2022-10-16T08:05:07;16.42;;;8.25;;
40707;SDS011;26392;42.696;23.350;2022-10-16T08:07:33;13.90;;;7.93;;
40707;SDS011;26392;42.696;23.350;2022-10-16T08:09:58;13.65;;;8.10;;
40707;SDS011;26392;42.696;23.350;2022-10-16T08:12:25;17.23;;;8.20;;
40707;SDS011;26392;42.696;23.350;2022-10-16T08:14:51;16.10;;;7.40;;
40707;SDS011;26392;42.696;23.350;2022-10-16T08:17:16;15.30;;;8.40;;
40707;SDS011;26392;42.696;23.350;2022-10-16T08:19:45;15.05;;;7.68;;
40707;SDS011;26392;42.696;23.350;2022-10-16T08:22:12;12.40;;;7.95;;
40707;SDS011;26392;42.696;23.350;2022-10-16T08:24:38;16.48;;;8.43;;
40707;SDS011;26392;42.696;23.350;2022-10-16T08:27:04;16.48;;;9.50;;
40707;SDS011;26392;42.696;23.350;2022-10-16T08:29:29;17.77;;;9.05;;
40707;SDS011;26392;42.696;23.350;2022-10-16T08:31:54;15.77;;;8.05;;
40707;SDS011;26392;42.696;23.350;2022-10-16T08:34:20;13.80;;;8.35;;
40707;SDS011;26392;42.696;23.350;2022-10-16T08:36:45;17.70;;;7.72;;
40707;SDS011;26392;42.696;23.350;2022-10-16T08:39:11;15.77;;;7.93;;
40707;SDS011;26392;42.696;23.350;2022-10-16T08:44:31;22.70;;;9.50;;
40707;SDS011;26392;42.696;23.350;2022-10-16T08:47:13;15.25;;;7.30;;
40707;SDS011;26392;42.696;23.350;2022-10-16T08:49:47;24.42;;;9.10;;
40707;SDS011;26392;42.696;23.350;2022-10-16T08:52:18;10.38;;;5.45;;
40707;SDS011;26392;42.696;23.350;2022-10-16T08:54:45;16.27;;;7.07;;
40707;SDS011;26392;42.696;23.350;2022-10-16T08:57:20;10.15;;;6.10;;
40707;SDS011;26392;42.696;23.350;2022-10-16T08:59:47;9.93;;;6.10;;
40707;SDS011;26392;42.696;23.350;2022-10-16T09:02:24;10.90;;;5.25;;
40707;SDS011;26392;42.696;23.350;2022-10-16T09:07:46;14.07;;;4.38;;
40707;SDS011;26392;42.696;23.350;2022-10-16T09:15:38;13.68;;;6.68;;
40707;SDS011;26392;42.696;23.350;2022-10-16T09:23:15;9.38;;;4.13;;
40707;SDS011;26392;42.696;23.350;2022-10-16T09:25:46;10.82;;;5.28;;
40707;SDS011;26392;42.696;23.350;2022-10-16T09:28:14;9.07;;;3.95;;
40707;SDS011;26392;42.696;23.350;2022-10-16T09:30:41;5.32;;;3.33;;
40707;SDS011;26392;42.696;23.350;2022-10-16T09:33:07;7.43;;;4.03;;
40707;SDS011;26392;42.696;23.350;2022-10-16T09:35:36;6.22;;;3.72;;
40707;SDS011;26392;42.696;23.350;2022-10-16T09:38:04;7.70;;;4.40;;
40707;SDS011;26392;42.696;23.350;2022-10-16T09:40:31;5.45;;;3.47;;
40707;SDS011;26392;42.696;23.350;2022-10-16T09:43:01;4.88;;;3.55;;
40707;SDS011;26392;42.696;23.350;2022-10-16T09:46:02;5.38;;;3.55;;
40707;SDS011;26392;42.696;23.350;2022-10-16T09:48:31;8.85;;;3.55;;
40707;SDS011;26392;42.696;23.350;2022-10-16T09:51:02;6.10;;;3.40;;
40707;SDS011;26392;42.696;23.350;2022-10-16T09:53:40;5.18;;;3.50;;
40707;SDS011;26392;42.696;23.350;2022-10-16T09:56:11;7.82;;;3.55;;
40707;SDS011;26392;42.696;23.350;2022-10-16T09:58:53;5.10;;;3.05;;
40707;SDS011;26392;42.696;23.350;2022-10-16T10:01:20;5.82;;;3.42;;
40707;SDS011;26392;42.696;23.350;2022-10-16T10:03:56;6.47;;;3.78;;
40707;SDS011;26392;42.696;23.350;2022-10-16T10:06:29;7.40;;;3.55;;
40707;SDS011;26392;42.696;23.350;2022-10-16T10:17:02;7.13;;;3.30;;
40707;SDS011;26392;42.696;23.350;2022-10-16T10:22:48;12.68;;;4.20;;
40707;SDS011;26392;42.696;23.350;2022-10-16T10:24:54;9.93;;;4.10;;
40707;SDS011;26392;42.696;23.350;2022-10-16T10:43:55;6.10;;;3.55;;
40707;SDS011;26392;42.696;23.350;2022-10-16T10:46:35;4.18;;;2.85;;
40707;SDS011;26392;42.696;23.350;2022-10-16T10:58:37;5.85;;;3.88;;
40707;SDS011;26392;42.696;23.350;2022-10-16T11:03:35;6.78;;;3.95;;
40707;SDS011;26392;42.696;23.350;2022-10-16T11:06:26;7.82;;;4.07;;
40707;SDS011;26392;42.696;23.350;2022-10-16T11:08:55;18.58;;;4.05;;
40707;SDS011;26392;42.696;23.350;2022-10-16T11:11:51;6.40;;;3.60;;
40707;SDS011;26392;42.696;23.350;2022-10-16T11:17:18;8.52;;;4.30;;
40707;SDS011;26392;42.696;23.350;2022-10-16T11:19:58;5.97;;;3.80;;
40707;SDS011;26392;42.696;23.350;2022-10-16T11:22:32;6.85;;;3.63;;
40707;SDS011;26392;42.696;23.350;2022-10-16T11:27:40;8.25;;;3.22;;
40707;SDS011;26392;42.696;23.350;2022-10-16T11:30:20;5.05;;;3.40;;
40707;SDS011;26392;42.696;23.350;2022-10-16T11:32:52;5.22;;;3.05;;
40707;SDS011;26392;42.696;23.350;2022-10-16T11:35:33;9.93;;;3.95;;
40707;SDS011;26392;42.696;23.350;2022-10-16T11:38:09;4.10;;;2.70;;
40707;SDS011;26392;42.696;23.350;2022-10-16T11:40:40;7.03;;;3.20;;
40707;SDS011;26392;42.696;23.350;2022-10-16T11:43:12;5.30;;;2.97;;
40707;SDS011;26392;42.696;23.350;2022-10-16T11:45:43;9.02;;;3.63;;
40707;SDS011;26392;42.696;23.350;2022-10-16T11:51:05;19.65;;;3.70;;
40707;SDS011;26392;42.696;23.350;2022-10-16T11:56:46;3.58;;;2.83;;
40707;SDS011;26392;42.696;23.350;2022-10-16T12:01:49;7.85;;;3.15;;
40707;SDS011;26392;42.696;23.350;2022-10-16T12:04:41;10.77;;;3.30;;
40707;SDS011;26392;42.696;23.350;2022-10-16T12:07:18;11.25;;;4.32;;
40707;SDS011;26392;42.696;23.350;2022-10-16T12:09:50;5.78;;;3.30;;
40707;SDS011;26392;42.696;23.350;2022-10-16T12:12:25;11.27;;;3.85;;
40707;SDS011;26392;42.696;23.350;2022-10-16T12:15:02;7.50;;;4.07;;
40707;SDS011;26392;42.696;23.350;2022-10-16T12:17:37;6.55;;;3.17;;
40707;SDS011;26392;42.696;23.350;2022-10-16T12:22:41;6.93;;;2.90;;
40707;SDS011;26392;42.696;23.350;2022-10-16T12:25:26;7.63;;;3.50;;
40707;SDS011;26392;42.696;23.350;2022-10-16T12:28:01;5.35;;;3.17;;
40707;SDS011;26392;42.696;23.350;2022-10-16T12:30:35;9.27;;;3.92;;
40707;SDS011;26392;42.696;23.350;2022-10-16T12:33:05;9.27;;;3.15;;
40707;SDS011;26392;42.696;23.350;2022-10-16T12:35:44;8.23;;;3.28;;
40707;SDS011;26392;42.696;23.350;2022-10-16T12:38:18;4.68;;;2.88;;
40707;SDS011;26392;42.696;23.350;2022-10-16T12:40:46;5.05;;;3.08;;
40707;SDS011;26392;42.696;23.350;2022-10-16T12:43:24;9.25;;;3.40;;
40707;SDS011;26392;42.696;23.350;2022-10-16T12:46:00;7.90;;;3.92;;
40707;SDS011;26392;42.696;23.350;2022-10-16T12:48:28;6.32;;;3.13;;
40707;SDS011;26392;42.696;23.350;2022-10-16T12:50:55;4.50;;;3.10;;
40707;SDS011;26392;42.696;23.350;2022-10-16T12:53:24;5.82;;;3.10;;
40707;SDS011;26392;42.696;23.350;2022-10-16T12:56:08;9.02;;;3.30;;
40707;SDS011;26392;42.696;23.350;2022-10-16T12:58:59;5.88;;;3.17;;
40707;SDS011;26392;42.696;23.350;2022-10-16T13:04:33;4.25;;;2.90;;
40707;SDS011;26392;42.696;23.350;2022-10-16T13:10:06;7.72;;;2.90;;
40707;SDS011;26392;42.696;23.350;2022-10-16T13:17:37;5.43;;;2.45;;
40707;SDS011;26392;42.696;23.350;2022-10-16T13:23:13;3.95;;;2.80;;
40707;SDS011;26392;42.696;23.350;2022-10-16T13:28:52;2.88;;;2.25;;
40707;SDS011;26392;42.696;23.350;2022-10-16T13:31:19;6.15;;;2.90;;
40707;SDS011;26392;42.696;23.350;2022-10-16T13:33:49;4.38;;;2.42;;
40707;SDS011;26392;42.696;23.350;2022-10-16T13:36:23;6.50;;;2.97;;
40707;SDS011;26392;42.696;23.350;2022-10-16T13:39:01;5.03;;;2.45;;
40707;SDS011;26392;42.696;23.350;2022-10-16T13:41:36;3.08;;;2.35;;
40707;SDS011;26392;42.696;23.350;2022-10-16T13:44:02;2.25;;;1.95;;
40707;SDS011;26392;42.696;23.350;2022-10-16T13:46:27;8.93;;;2.25;;
40707;SDS011;26392;42.696;23.350;2022-10-16T13:51:23;6.72;;;2.45;;
40707;SDS011;26392;42.696;23.350;2022-10-16T13:53:48;3.95;;;1.92;;
40707;SDS011;26392;42.696;23.350;2022-10-16T13:56:15;7.00;;;2.55;;
40707;SDS011;26392;42.696;23.350;2022-10-16T13:58:45;4.35;;;2.28;;
40707;SDS011;26392;42.696;23.350;2022-10-16T14:01:45;5.85;;;2.92;;
40707;SDS011;26392;42.696;23.350;2022-10-16T14:04:09;5.53;;;2.60;;
40707;SDS011;26392;42.696;23.350;2022-10-16T14:06:40;4.43;;;2.50;;
40707;SDS011;26392;42.696;23.350;2022-10-16T14:09:26;8.23;;;2.20;;
40707;SDS011;26392;42.696;23.350;2022-10-16T14:12:03;4.45;;;2.22;;
40707;SDS011;26392;42.696;23.350;2022-10-16T14:14:41;3.75;;;2.10;;
40707;SDS011;26392;42.696;23.350;2022-10-16T14:17:30;3.67;;;1.90;;
40707;SDS011;26392;42.696;23.350;2022-10-16T14:19:58;4.53;;;2.05;;
40707;SDS011;26392;42.696;23.350;2022-10-16T14:24:58;4.53;;;2.20;;
40707;SDS011;26392;42.696;23.350;2022-10-16T14:27:34;6.13;;;2.17;;
40707;SDS011;26392;42.696;23.350;2022-10-16T14:32:33;4.88;;;2.60;;
40707;SDS011;26392;42.696;23.350;2022-10-16T14:34:58;3.83;;;2.13;;
40707;SDS011;26392;42.696;23.350;2022-10-16T14:37:24;11.93;;;2.67;;
40707;SDS011;26392;42.696;23.350;2022-10-16T14:39:51;6.78;;;2.78;;
40707;SDS011;26392;42.696;23.350;2022-10-16T14:42:18;2.70;;;1.83;;
40707;SDS011;26392;42.696;23.350;2022-10-16T14:44:48;3.60;;;2.38;;
40707;SDS011;26392;42.696;23.350;2022-10-16T14:47:18;5.35;;;2.20;;
40707;SDS011;26392;42.696;23.350;2022-10-16T14:49:47;5.13;;;2.58;;
40707;SDS011;26392;42.696;23.350;2022-10-16T14:52:13;3.70;;;2.50;;
40707;SDS011;26392;42.696;23.350;2022-10-16T14:54:39;3.78;;;2.30;;
40707;SDS011;26392;42.696;23.350;2022-10-16T14:57:05;3.95;;;2.38;;
40707;SDS011;26392;42.696;23.350;2022-10-16T15:02:47;3.78;;;2.33;;
40707;SDS011;26392;42.696;23.350;2022-10-16T15:05:13;3.78;;;2.47;;
40707;SDS011;26392;42.696;23.350;2022-10-16T15:07:50;6.07;;;2.65;;
40707;SDS011;26392;42.696;23.350;2022-10-16T15:10:17;4.18;;;2.55;;
40707;SDS011;26392;42.696;23.350;2022-10-16T15:12:43;5.63;;;2.85;;
40707;SDS011;26392;42.696;23.350;2022-10-16T15:17:49;7.70;;;2.95;;
40707;SDS011;26392;42.696;23.350;2022-10-16T15:20:18;3.75;;;2.83;;
40707;SDS011;26392;42.696;23.350;2022-10-16T15:22:44;4.68;;;2.92;;
40707;SDS011;26392;42.696;23.350;2022-10-16T15:27:50;4.95;;;2.67;;
40707;SDS011;26392;42.696;23.350;2022-10-16T15:30:15;4.88;;;2.42;;
40707;SDS011;26392;42.696;23.350;2022-10-16T15:32:41;3.97;;;2.83;;
40707;SDS011;26392;42.696;23.350;2022-10-16T15:35:08;4.63;;;2.53;;
40707;SDS011;26392;42.696;23.350;2022-10-16T15:37:33;4.38;;;2.83;;
40707;SDS011;26392;42.696;23.350;2022-10-16T15:39:59;5.15;;;2.38;;
40707;SDS011;26392;42.696;23.350;2022-10-16T15:42:24;7.78;;;2.90;;
40707;SDS011;26392;42.696;23.350;2022-10-16T15:44:50;13.02;;;2.75;;
40707;SDS011;26392;42.696;23.350;2022-10-16T15:47:15;9.63;;;2.97;;
40707;SDS011;26392;42.696;23.350;2022-10-16T15:49:40;5.05;;;2.70;;
40707;SDS011;26392;42.696;23.350;2022-10-16T15:52:06;5.25;;;2.75;;
40707;SDS011;26392;42.696;23.350;2022-10-16T15:54:31;4.43;;;2.65;;
40707;SDS011;26392;42.696;23.350;2022-10-16T15:56:57;5.57;;;3.15;;
40707;SDS011;26392;42.696;23.350;2022-10-16T15:59:22;6.15;;;2.65;;
40707;SDS011;26392;42.696;23.350;2022-10-16T16:01:48;5.97;;;2.67;;
40707;SDS011;26392;42.696;23.350;2022-10-16T16:04:13;9.23;;;3.03;;
40707;SDS011;26392;42.696;23.350;2022-10-16T16:06:38;7.30;;;2.80;;
40707;SDS011;26392;42.696;23.350;2022-10-16T16:09:09;3.78;;;2.65;;
40707;SDS011;26392;42.696;23.350;2022-10-16T16:11:35;5.25;;;3.03;;
40707;SDS011;26392;42.696;23.350;2022-10-16T16:14:03;7.22;;;3.33;;
40707;SDS011;26392;42.696;23.350;2022-10-16T16:16:32;5.53;;;3.10;;
40707;SDS011;26392;42.696;23.350;2022-10-16T16:19:03;5.22;;;3.20;;
40707;SDS011;26392;42.696;23.350;2022-10-16T16:21:31;8.75;;;3.40;;
40707;SDS011;26392;42.696;23.350;2022-10-16T16:23:57;5.10;;;3.17;;
40707;SDS011;26392;42.696;23.350;2022-10-16T16:26:26;7.93;;;2.95;;
40707;SDS011;26392;42.696;23.350;2022-10-16T16:28:54;8.27;;;3.50;;
40707;SDS011;26392;42.696;23.350;2022-10-16T16:31:23;16.35;;;3.97;;
40707;SDS011;26392;42.696;23.350;2022-10-16T16:33:50;8.95;;;4.25;;
40707;SDS011;26392;42.696;23.350;2022-10-16T16:36:16;8.15;;;4.97;;
40707;SDS011;26392;42.696;23.350;2022-10-16T16:38:45;10.68;;;4.90;;